Crescent Beach, Washington
Current Conditions -  °F | °C
As of 6:53 AM on Saturday 25 Oct 2014 (Local Time) from KCLM Reporting Station
Overcast Overcast  
Wind Chill: 50°   Ceiling: 900
Heat Index: 50°   Visibility: 10mi
Dew Point: 47°   Wind: 7mph
Humidity: 89%   Direction: 20°NNE
Pressure: 29.48"   Gusts: NA
Location:  48.1359°N, 123.734°W
Report Text: KCLM 251353Z AUTO 02006KT 10SM OVC009 10/08 A2948 RMK AO2 CIG 006V012 SLP983 T01000083 TSNO $
Loading
Personal Weather Stations






























Interactive Weather Map
Tropical Storm Tracking
New forecast layout! Learn more

10-Day Weather Forecast

Advertisements
Track Severe Weather on mobile